Lethbridge Airport, Alberta

8:15 AM MDT on October 20, 2014 (GMT -0600)
Lethbridge Airport | Change Station
CLOSE
Current Station
Airport
Location: Lethbridge Airport,
Elevation: 3048 ft
Nearby Weather Stations

Elev 3048 ft 49.63 °N, 112.79 °W | Updated 15 minutes ago

Clear
Clear
41 °F
Feels Like 37 °F
N
6
Wind Variable Wind from Variable
Gusts 18 mph

Today is forecast to be nearly the same temperature as yesterday.

Today
High -- | Low -- °F
--% Chance of Precip.
Yesterday
High -- | Low -- °F
Precip. -- in
8:00 AM 6:30 PM
Waning Crescent, 11% visible
Pressure 29.80 in
Visibility 40.0 miles
Clouds Clear
Windchill 37 °F
Dew Point 32 °F
Humidity 70%
Rainfall 0.00 in
Snow Depth Not available.
UV 0 out of 12
Pollen Not available.
Air Quality Not available.
Flu Activity Not available.
METAR CYQL 201400Z VRB05G16KT 40SM SKC 05/00 A2974 RMK SLP089

More Conditions Fewer Conditions

Pressure 29.80 in
Visibility 40.0 miles
Clouds Clear
Windchill 37 °F
Dew Point 32 °F
Humidity 70%
Rainfall 0.00 in
Snow Depth Not available.
UV 0 out of 12
Pollen Not available.
Air Quality Not available.
Flu Activity Not available.
METAR CYQL 201400Z VRB05G16KT 40SM SKC 05/00 A2974 RMK SLP089

More Conditions Fewer Conditions

10-Day Weather Forecast

Almanac

Astronomy

Oct. 20, 2014 Rise Set
Actual Time 8:00 AM MDT 6:30 PM MDT
Civil Twilight 7:27 AM MDT 7:03 PM MDT
Nautical Twilight 6:50 AM MDT 7:40 PM MDT
Astronomical Twilight 6:13 AM MDT 8:17 PM MDT
Moon 4:35 AM MDT 5:09 PM MDT
Length of Visible Light 11h 35m
Length of Day
10h 29m
Tomorrow will be 3m 32s shorter.
Waning Crescent, 11% of the Moon is Illuminated
Today
Waning Crescent
Oct 23
New
Oct 30
First Quarter
Nov 6
Full
Nov 14
Last Quarter

Today's Extremes

Country Highs Country Lows

Community

WunderPhotos

Upload Photos

1,763,388 photos uploaded!

Nearby

Snow Depth

Not available.

Earthquake Activity

City Distance Mag. Time & Date
No recent earthquake activity has been reported nearby.
Minimum magnitude displayed is 2.5.

Coastal Water Temperatures

Place Temperature
No Stations Reporting

Nearby Weather Stations